Time;durP1;ratioP1;P1;durP2;ratioP2;P2;SDS_P1;SDS_P2;PMS_P1;PMS_P2;Temp;Humidity;BMP_temperature;BMP_pressure;BME280_temperature;BME280_humidity;BME280_pressure;Samples;Min_cycle;Max_cycle;Signal;HPM_P1;HPM_P2
2022/01/18 00:01:23;;;;;;;3.43;0.83;;;;;;;0.97;78.54;98573.35;1655203;85;21000;-69
2022/01/18 00:03:49;;;;;;;2.27;0.30;;;;;;;0.95;79.20;98572.70;1668223;85;21075;-69
2022/01/18 00:06:15;;;;;;;2.05;0.93;;;;;;;0.94;79.46;98582.05;1662543;85;21131;-69
2022/01/18 00:08:41;;;;;;;1.92;0.50;;;;;;;0.90;79.71;98569.77;1665045;85;21062;-70
2022/01/18 00:11:08;;;;;;;1.55;0.90;;;;;;;0.88;80.21;98579.61;1665398;85;21539;-68
2022/01/18 00:18:37;;;;;;;2.43;1.00;;;;;;;0.70;81.12;98574.60;1649714;85;21033;-70
2022/01/18 00:23:36;;;;;;;1.43;0.90;;;;;;;0.83;81.34;98600.31;1640157;85;21047;-69
2022/01/18 00:26:07;;;;;;;3.33;1.13;;;;;;;0.85;81.67;98605.36;1640921;86;21208;-69
2022/01/18 00:28:37;;;;;;;2.10;0.83;;;;;;;0.86;81.75;98613.57;1602030;88;21063;-68
2022/01/18 00:36:21;;;;;;;0.70;0.20;;;;;;;0.84;82.32;98626.03;1655563;85;20179;-67
2022/01/18 00:38:46;;;;;;;0.60;0.40;;;;;;;0.74;82.45;98644.58;1674952;84;21593;-68
2022/01/18 00:41:14;;;;;;;0.47;0.10;;;;;;;0.71;83.04;98656.70;1694714;84;21535;-70
2022/01/18 00:43:42;;;;;;;0.53;0.40;;;;;;;0.68;83.37;98660.49;1695039;84;21131;-70
2022/01/18 00:46:12;;;;;;;0.30;0.30;;;;;;;0.62;83.81;98674.74;1664290;84;21545;-68
2022/01/18 00:48:40;;;;;;;3.50;0.40;;;;;;;0.55;83.78;98681.16;1648528;86;21110;-68
2022/01/18 00:51:11;;;;;;;0.10;0.10;;;;;;;0.43;85.74;98696.38;1673734;84;21113;-69
2022/01/18 00:53:39;;;;;;;3.17;0.20;;;;;;;0.27;86.76;98728.64;1680467;84;21010;-69
2022/01/18 00:58:33;;;;;;;3.80;0.10;;;;;;;-0.23;89.10;98733.42;1684573;83;21077;-69
2022/01/18 01:01:00;;;;;;;;;;;;;;;-0.44;89.74;98760.01;1697307;84;21068;-70
2022/01/18 01:03:26;;;;;;;2.50;0.30;;;;;;;-0.65;89.25;98766.94;1692467;84;20112;-68
2022/01/18 01:05:53;;;;;;;4.28;0.28;;;;;;;-0.82;89.74;98778.61;1696699;84;21018;-69
2022/01/18 01:08:19;;;;;;;0.78;0.20;;;;;;;-0.90;89.92;98803.91;1692394;84;21592;-67
2022/01/18 01:10:46;;;;;;;2.42;0.30;;;;;;;-1.07;88.27;98803.77;1694970;84;21466;-67
2022/01/18 01:13:13;;;;;;;;;;;;;;;-1.22;88.63;98799.56;1699898;83;22227;-67
2022/01/18 01:41:47;;;;;;;0.40;0.20;;;;;;;-1.69;78.91;98835.05;1756121;80;21072;-69
2022/01/18 01:43:24;;;;;;;1.70;0.10;;;;;;;-1.64;81.04;98857.64;1752563;80;21101;-69
2022/01/18 01:45:50;;;;;;;;;;;;;;;-1.68;78.04;98865.91;1727250;80;20996;-68
2022/01/18 01:48:17;;;;;;;0.10;0.10;;;;;;;-1.78;77.11;98881.14;1721589;82;20460;-69
2022/01/18 01:50:55;;;;;;;0.97;0.20;;;;;;;-1.81;79.29;98894.52;1692902;83;21010;-69
2022/01/18 01:53:23;;;;;;;1.90;0.10;;;;;;;-1.83;78.27;98902.98;1681602;83;21120;-67
2022/01/18 01:55:52;;;;;;;1.03;0.20;;;;;;;-1.87;78.66;98877.27;1655911;85;21049;-67
2022/01/18 01:58:21;;;;;;;3.40;0.10;;;;;;;-1.92;78.63;98885.55;1710362;82;21577;-67
2022/01/18 02:00:55;;;;;;;1.73;0.13;;;;;;;-1.88;79.08;98906.50;1702220;82;21029;-67
2022/01/18 02:03:24;;;;;;;1.90;0.10;;;;;;;-1.84;76.47;98873.89;1663225;84;21069;-67
2022/01/18 02:05:51;;;;;;;2.47;0.10;;;;;;;-1.78;76.34;98865.47;1684266;83;20958;-67
2022/01/18 02:08:17;;;;;;;1.90;0.10;;;;;;;-1.78;72.48;98928.16;1670723;83;21065;-65
2022/01/18 02:10:45;;;;;;;0.57;0.10;;;;;;;-1.75;71.67;98906.17;1698890;83;21033;-67
2022/01/18 02:13:12;;;;;;;0.53;0.20;;;;;;;-1.73;69.99;98921.67;1675977;83;21097;-65
2022/01/18 02:16:11;;;;;;;0.20;0.20;;;;;;;-1.70;72.66;98937.07;1689363;83;21065;-66
2022/01/18 02:23:41;;;;;;;0.33;0.10;;;;;;;-2.11;82.63;98979.14;1684006;83;21167;-64
2022/01/18 02:26:08;;;;;;;0.10;0.10;;;;;;;-2.27;85.58;98968.44;1704601;83;20975;-67
2022/01/18 02:28:34;;;;;;;0.37;0.13;;;;;;;-2.42;85.64;98981.09;1727329;81;21028;-66
2022/01/18 02:31:00;;;;;;;1.20;0.10;;;;;;;-2.52;85.67;98971.13;1727313;82;20974;-66
2022/01/18 02:33:27;;;;;;;0.35;0.17;;;;;;;-2.60;84.69;98980.95;1722756;82;21534;-64
2022/01/18 02:35:53;;;;;;;1.57;0.10;;;;;;;-2.66;83.11;98982.31;1673463;85;21184;-67
2022/01/18 02:38:21;;;;;;;0.40;0.20;;;;;;;-2.64;82.14;98973.88;1674855;85;21019;-65
2022/01/18 02:40:47;;;;;;;1.17;0.10;;;;;;;-2.61;81.76;99015.84;1678549;84;21021;-67
2022/01/18 02:45:58;;;;;;;0.73;0.30;;;;;;;-2.53;79.27;99021.19;1661784;85;21037;-66
2022/01/18 02:48:26;;;;;;;0.35;0.10;;;;;;;-2.51;77.26;98992.35;1646098;85;21050;-66
2022/01/18 02:50:52;;;;;;;0.20;0.20;;;;;;;-2.50;75.05;99013.58;1646357;85;21095;-66
2022/01/18 02:53:18;;;;;;;0.10;0.10;;;;;;;-2.52;73.55;99012.88;1647398;85;21113;-66
2022/01/18 02:55:54;;;;;;;0.20;0.10;;;;;;;-2.57;71.97;99014.11;1656962;85;21089;-65
2022/01/18 02:58:32;;;;;;;0.43;0.20;;;;;;;-2.65;69.58;99053.11;1651233;85;21058;-67
2022/01/18 03:03:33;;;;;;;0.40;0.10;;;;;;;-2.71;68.61;99047.13;1665494;84;21511;-68
2022/01/18 03:06:02;;;;;;;0.10;0.10;;;;;;;-2.74;66.63;98987.41;1668124;84;21026;-67
2022/01/18 03:08:29;;;;;;;2.57;0.10;;;;;;;-2.75;65.48;99018.34;1646503;86;21030;-66
2022/01/18 03:10:57;;;;;;;0.10;0.10;;;;;;;-2.79;63.10;99053.48;1679935;84;21025;-67
2022/01/18 03:13:23;;;;;;;0.77;0.17;;;;;;;-2.78;63.48;99034.28;1679332;83;21204;-68
2022/01/18 03:15:51;;;;;;;0.10;0.10;;;;;;;-2.79;63.22;99035.23;1671819;84;21111;-67
2022/01/18 03:18:19;;;;;;;0.20;0.10;;;;;;;-2.85;65.39;99035.28;1644653;85;21056;-66
2022/01/18 03:20:45;;;;;;;0.30;0.10;;;;;;;-2.90;65.17;99044.47;1681497;84;21002;-68
2022/01/18 03:23:17;;;;;;;1.20;0.50;;;;;;;-2.90;64.50;99081.82;1662820;84;21072;-66
2022/01/18 03:25:52;;;;;;;1.40;0.10;;;;;;;-2.91;62.51;99080.16;1682522;84;21038;-67
2022/01/18 03:28:08;;;;;;;2.67;0.10;;;;;;;-2.96;63.19;99105.34;1664706;84;21534;-64
2022/01/18 03:30:39;;;;;;;0.20;0.10;;;;;;;-3.40;62.14;99000.99;1669437;84;21981;-65
2022/01/18 03:33:09;;;;;;;0.50;0.20;;;;;;;-3.06;62.41;99074.48;1668852;84;21142;-67
2022/01/18 03:35:37;;;;;;;2.93;0.10;;;;;;;-3.04;61.92;99114.28;1683815;83;21095;-68
2022/01/18 03:38:04;;;;;;;5.70;0.30;;;;;;;-3.01;62.20;99115.82;1670689;84;21066;-67
2022/01/18 03:40:31;;;;;;;2.37;0.20;;;;;;;-2.98;61.89;99109.02;1693735;82;21003;-66
2022/01/18 03:42:59;;;;;;;3.10;0.20;;;;;;;-2.96;61.37;99090.16;1715605;82;21094;-67
2022/01/18 03:45:31;;;;;;;0.10;0.10;;;;;;;-2.93;60.58;99108.16;1705700;81;21145;-66
2022/01/18 03:48:05;;;;;;;2.53;0.67;;;;;;;-2.94;60.17;99116.92;1737927;81;21023;-66
2022/01/18 03:50:31;;;;;;;1.20;0.27;;;;;;;-2.91;59.86;99131.50;1739246;81;21043;-67
2022/01/18 03:52:58;;;;;;;2.75;0.10;;;;;;;-2.89;59.81;99121.27;1719184;82;20978;-67
2022/01/18 03:55:24;;;;;;;0.57;0.10;;;;;;;-2.93;58.85;99101.63;1705853;81;20959;-67
2022/01/18 03:57:50;;;;;;;0.35;0.10;;;;;;;-2.92;60.06;99133.25;1734615;81;21045;-67
2022/01/18 04:00:24;;;;;;;0.50;0.10;;;;;;;-2.90;58.60;99117.48;1740242;82;21014;-70
2022/01/18 04:02:52;;;;;;;0.83;0.10;;;;;;;-2.87;59.06;99176.72;1733256;81;20987;-66
2022/01/18 04:05:19;;;;;;;0.10;0.10;;;;;;;-2.87;58.50;99159.77;1723849;81;21052;-66
2022/01/18 04:07:46;;;;;;;0.10;0.10;;;;;;;-2.82;57.98;99175.04;1736464;82;21148;-67
2022/01/18 04:10:13;;;;;;;3.00;0.10;;;;;;;-2.81;57.88;99185.80;1737275;82;21715;-67
2022/01/18 04:12:40;;;;;;;0.73;0.30;;;;;;;-2.82;57.71;99190.69;1739593;81;21495;-67
2022/01/18 04:15:11;;;;;;;1.00;0.23;;;;;;;-2.83;57.80;99202.06;1735550;81;21020;-66
2022/01/18 04:26:04;;;;;;;0.73;0.20;;;;;;;-2.78;57.42;99216.85;1717345;82;21110;-65
2022/01/18 04:31:05;;;;;;;0.40;0.10;;;;;;;-2.82;57.40;99204.55;1708159;82;21023;-66
2022/01/18 04:33:31;;;;;;;0.40;0.10;;;;;;;-2.82;58.46;99242.84;1711929;82;21581;-66
2022/01/18 04:35:59;;;;;;;0.20;0.20;;;;;;;-2.84;57.57;99254.70;1717047;82;21057;-67
2022/01/18 04:38:26;;;;;;;0.77;0.20;;;;;;;-2.80;57.82;99265.71;1717655;82;21073;-66
2022/01/18 04:40:52;;;;;;;5.10;0.37;;;;;;;-2.78;57.55;99263.80;1731954;82;21042;-65
2022/01/18 04:48:33;;;;;;;0.50;0.40;;;;;;;-2.72;58.45;99282.84;1673521;84;21146;-71
2022/01/18 04:51:09;;;;;;;0.20;0.10;;;;;;;-2.66;59.06;99299.27;1672987;84;21026;-69
2022/01/18 04:53:40;;;;;;;0.20;0.20;;;;;;;-2.64;59.45;99288.22;1664922;85;21159;-70
2022/01/18 04:56:14;;;;;;;0.40;0.10;;;;;;;-2.62;59.47;99316.80;1664281;84;21010;-68
2022/01/18 04:58:37;;;;;;;0.53;0.20;;;;;;;-2.58;59.84;99315.58;1676908;84;21537;-70
2022/01/18 05:01:07;;;;;;;0.27;0.17;;;;;;;-2.57;60.51;99330.29;1682194;84;21051;-71
2022/01/18 05:03:34;;;;;;;3.23;0.30;;;;;;;-2.60;60.84;99333.99;1673140;84;21001;-72
2022/01/18 05:06:13;;;;;;;0.17;0.10;;;;;;;-2.58;61.53;99337.75;1671192;84;21534;-72
2022/01/18 05:08:39;;;;;;;2.25;0.10;;;;;;;-2.55;61.42;99347.45;1720433;82;21033;-73
2022/01/18 05:11:09;;;;;;;1.07;0.30;;;;;;;-2.53;61.85;99341.30;1700436;81;21560;-71
2022/01/18 05:13:56;;;;;;;1.50;0.20;;;;;;;-2.56;62.10;99350.22;1701874;83;21088;-73
2022/01/18 05:24:14;;;;;;;0.20;0.10;;;;;;;-2.64;62.46;99353.93;1717783;82;21017;-71
2022/01/18 05:26:40;;;;;;;0.30;0.20;;;;;;;-2.64;62.44;99356.05;1716510;82;21046;-71
2022/01/18 05:29:06;;;;;;;0.37;0.20;;;;;;;-2.62;62.29;99356.78;1706823;82;21052;-72
2022/01/18 05:31:32;;;;;;;2.30;0.20;;;;;;;-2.61;61.55;99355.81;1723641;82;21565;-72
2022/01/18 05:33:59;;;;;;;0.25;0.20;;;;;;;-2.61;61.72;99371.46;1721182;82;21057;-71
2022/01/18 05:36:25;;;;;;;0.20;0.20;;;;;;;-2.61;61.85;99371.46;1708442;82;22151;-71
2022/01/18 05:38:51;;;;;;;3.72;0.10;;;;;;;-2.59;62.07;99379.98;1726418;82;21022;-72
2022/01/18 05:41:17;;;;;;;1.37;0.20;;;;;;;-2.59;62.39;99387.00;1715976;82;21030;-71
2022/01/18 05:43:43;;;;;;;1.20;0.20;;;;;;;-2.58;62.75;99375.13;1706047;82;21698;-72
2022/01/18 05:46:10;;;;;;;2.77;0.25;;;;;;;-2.58;62.33;99388.63;1700853;83;21133;-73
2022/01/18 05:48:36;;;;;;;0.42;0.23;;;;;;;-2.59;62.77;99392.21;1610072;87;21118;-74
2022/01/18 05:51:02;;;;;;;1.55;0.30;;;;;;;-2.62;62.58;99391.15;1657025;85;21554;-73
2022/01/18 05:53:34;;;;;;;0.30;0.20;;;;;;;-2.65;62.75;99393.55;1652056;85;21035;-72
2022/01/18 05:56:03;;;;;;;0.80;0.37;;;;;;;-2.67;62.67;99402.47;1683057;83;21014;-70
2022/01/18 05:58:31;;;;;;;0.83;0.23;;;;;;;-2.69;62.72;99413.02;1674113;84;21107;-65
2022/01/18 06:00:57;;;;;;;0.50;0.50;;;;;;;-2.65;63.13;99409.69;1685664;82;21048;-66
2022/01/18 06:03:28;;;;;;;2.75;0.30;;;;;;;-2.64;62.74;99400.89;1718327;82;21035;-64
2022/01/18 06:08:42;;;;;;;;;;;;;;;-2.63;62.52;99423.43;1705523;82;21026;-65
2022/01/18 06:11:09;;;;;;;1.53;0.20;;;;;;;-2.64;62.20;99426.98;1698752;82;20160;-65
2022/01/18 06:13:36;;;;;;;2.80;0.30;;;;;;;-2.68;62.35;99446.45;1686375;84;22028;-67
2022/01/18 06:16:04;;;;;;;;;;;;;;;-2.64;61.94;99443.94;1685017;84;21097;-66
2022/01/18 06:18:31;;;;;;;0.90;0.82;;;;;;;-2.64;61.87;99452.58;1635387;86;20143;-64
2022/01/18 06:20:58;;;;;;;1.73;0.63;;;;;;;-2.64;61.94;99453.88;1659543;84;21042;-65
2022/01/18 06:23:25;;;;;;;0.30;0.30;;;;;;;-2.62;62.03;99456.38;1714652;81;21013;-66
2022/01/18 06:25:51;;;;;;;1.37;0.30;;;;;;;-2.61;61.10;99454.95;1742449;81;21529;-65
2022/01/18 06:28:17;;;;;;;0.35;0.20;;;;;;;-2.58;60.65;99467.76;1741056;81;21002;-65
2022/01/18 06:30:44;;;;;;;1.45;0.28;;;;;;;-2.55;60.52;99458.84;1723928;81;21010;-69
2022/01/18 06:33:10;;;;;;;0.60;0.20;;;;;;;-2.51;59.79;99475.08;1740450;81;21063;-70
2022/01/18 06:35:36;;;;;;;3.02;0.17;;;;;;;-2.50;59.23;99471.05;1724844;81;21683;-65
2022/01/18 06:38:02;;;;;;;2.40;0.30;;;;;;;-2.45;59.46;99483.24;1738651;81;21037;-67
2022/01/18 06:40:29;;;;;;;2.35;0.35;;;;;;;-2.41;59.17;99459.00;1722604;81;21125;-65
2022/01/18 06:42:55;;;;;;;0.60;0.47;;;;;;;-2.39;58.81;99472.78;1732731;81;21549;-63
2022/01/18 06:45:21;;;;;;;1.75;0.30;;;;;;;-2.37;58.54;99471.69;1722709;81;20986;-65
2022/01/18 06:47:47;;;;;;;0.60;0.20;;;;;;;-2.37;58.70;99480.82;1706090;83;21109;-65
2022/01/18 06:50:13;;;;;;;0.42;0.30;;;;;;;-2.35;59.22;99471.56;1693937;83;21569;-65
2022/01/18 06:52:39;;;;;;;0.98;0.25;;;;;;;-2.33;58.78;99460.52;1703028;83;21014;-64
2022/01/18 06:55:08;;;;;;;11.60;0.20;;;;;;;-2.32;58.74;99479.12;1691879;83;21062;-67
2022/01/18 06:57:34;;;;;;;0.47;0.20;;;;;;;-2.35;58.20;99491.14;1696850;83;21089;-69
2022/01/18 07:00:00;;;;;;;0.62;0.30;;;;;;;-2.39;58.08;99508.83;1711703;83;21035;-58
2022/01/18 07:02:26;;;;;;;1.05;0.10;;;;;;;-2.43;58.59;99512.66;1735546;81;21232;-58
2022/01/18 07:04:52;;;;;;;9.10;0.75;;;;;;;-2.42;58.63;99488.67;1734587;81;21080;-58
2022/01/18 07:07:18;;;;;;;3.40;0.30;;;;;;;-2.42;58.27;99497.81;1734460;82;21015;-59
2022/01/18 07:09:45;;;;;;;0.95;0.20;;;;;;;-2.43;58.63;99516.56;1735750;81;21029;-58
2022/01/18 07:12:12;;;;;;;0.78;0.50;;;;;;;-2.39;58.65;99502.31;1710950;81;21222;-58
2022/01/18 07:14:40;;;;;;;1.03;0.53;;;;;;;-2.41;58.20;99496.84;1696655;83;21567;-59
2022/01/18 07:17:09;;;;;;;0.53;0.20;;;;;;;-2.36;58.87;99520.80;1691063;83;21117;-59
2022/01/18 07:19:36;;;;;;;;;;;;;;;-2.36;58.85;99519.48;1693577;83;21014;-59
2022/01/18 07:22:04;;;;;;;1.52;0.20;;;;;;;-2.32;58.21;99537.03;1678614;84;20182;-59
2022/01/18 07:24:43;;;;;;;3.20;0.80;;;;;;;-2.37;58.47;99539.55;1678296;84;21025;-59
2022/01/18 07:27:07;;;;;;;0.67;0.30;;;;;;;-2.37;58.31;99541.34;1670900;84;21115;-61
2022/01/18 07:29:34;;;;;;;0.73;0.30;;;;;;;-2.32;58.38;99560.53;1681762;84;21014;-58
2022/01/18 07:32:00;;;;;;;4.67;1.13;;;;;;;-2.29;58.42;99549.84;1678832;84;21042;-59
2022/01/18 07:34:27;;;;;;;1.12;0.33;;;;;;;-2.31;58.44;99566.11;1655960;84;21114;-61
2022/01/18 07:36:53;;;;;;;0.50;0.28;;;;;;;-2.30;57.83;99567.27;1693367;83;21046;-60
2022/01/18 07:39:19;;;;;;;0.60;0.60;;;;;;;-2.35;58.23;99571.57;1699165;83;22233;-59
2022/01/18 07:41:45;;;;;;;0.50;0.30;;;;;;;-2.36;57.52;99552.93;1690008;84;21645;-58
2022/01/18 07:44:13;;;;;;;0.80;0.20;;;;;;;-2.30;56.86;99567.75;1666885;84;21016;-58
2022/01/18 07:46:40;;;;;;;0.93;0.53;;;;;;;-2.25;56.83;99577.36;1710219;82;21109;-58
2022/01/18 07:49:06;;;;;;;0.53;0.47;;;;;;;-2.26;57.07;99583.06;1721893;82;20971;-59
2022/01/18 07:51:36;;;;;;;0.70;0.30;;;;;;;-2.13;57.03;99598.53;1717370;82;21062;-60
2022/01/18 07:54:03;;;;;;;1.07;0.40;;;;;;;-2.09;56.19;99599.97;1718889;82;20955;-58
2022/01/18 07:56:30;;;;;;;0.77;0.30;;;;;;;-2.12;55.81;99604.61;1712587;82;21093;-57
2022/01/18 07:58:56;;;;;;;1.25;0.62;;;;;;;-2.13;55.51;99607.67;1722472;82;21101;-57
2022/01/18 08:01:22;;;;;;;0.78;0.40;;;;;;;-2.12;55.84;99628.11;1723681;82;21065;-58
2022/01/18 08:03:49;;;;;;;0.90;0.50;;;;;;;-2.10;55.36;99628.80;1719003;82;21034;-59
2022/01/18 08:06:15;;;;;;;0.75;0.30;;;;;;;-2.07;54.60;99619.40;1714068;82;21102;-59
2022/01/18 08:08:41;;;;;;;1.10;1.00;;;;;;;-2.04;54.68;99603.00;1712706;82;21038;-59
2022/01/18 08:11:08;;;;;;;2.12;0.55;;;;;;;-2.03;54.14;99627.36;1722875;82;21078;-61
2022/01/18 08:13:40;;;;;;;2.17;0.80;;;;;;;-2.02;54.63;99633.73;1719679;82;21065;-61
2022/01/18 08:16:21;;;;;;;3.60;0.60;;;;;;;-1.99;54.38;99620.93;1716022;82;21137;-60
2022/01/18 08:18:37;;;;;;;0.70;0.37;;;;;;;-1.98;54.14;99623.42;1719302;82;21225;-60
2022/01/18 08:21:03;;;;;;;1.95;0.68;;;;;;;-2.01;54.33;99643.73;1721120;82;20999;-59
2022/01/18 08:23:29;;;;;;;0.90;0.50;;;;;;;-1.99;54.14;99640.52;1685248;82;22090;-59
2022/01/18 08:25:56;;;;;;;0.65;0.40;;;;;;;-1.96;54.36;99650.24;1690197;83;21093;-59
2022/01/18 08:28:22;;;;;;;1.82;0.37;;;;;;;-1.90;54.28;99671.12;1655594;85;21033;-58
2022/01/18 08:30:48;;;;;;;0.70;0.30;;;;;;;-1.97;53.55;99675.99;1621815;86;20992;-60
2022/01/18 08:33:14;;;;;;;2.05;0.40;;;;;;;-2.00;53.78;99679.33;1655925;84;21113;-61
2022/01/18 08:35:40;;;;;;;1.50;0.53;;;;;;;-2.04;53.78;99685.75;1642575;85;21029;-60
2022/01/18 08:38:06;;;;;;;0.68;0.40;;;;;;;-2.04;54.02;99683.14;1699985;83;21092;-58
2022/01/18 08:40:33;;;;;;;0.60;0.40;;;;;;;-2.01;54.35;99695.48;1695098;83;21058;-60
2022/01/18 08:42:59;;;;;;;0.20;0.20;;;;;;;-1.99;53.66;99705.33;1654954;85;21450;-59
2022/01/18 08:45:25;;;;;;;0.85;0.30;;;;;;;-2.03;53.33;99703.92;1699958;83;21028;-59
2022/01/18 08:47:51;;;;;;;0.30;0.30;;;;;;;-2.01;53.96;99712.95;1689956;83;22252;-59
2022/01/18 08:50:19;;;;;;;2.80;0.20;;;;;;;-1.98;53.26;99711.37;1690909;83;21516;-57
2022/01/18 08:52:50;;;;;;;0.87;0.30;;;;;;;-1.94;53.47;99714.57;1709637;83;22074;-59
2022/01/18 08:55:14;;;;;;;0.43;0.30;;;;;;;-1.98;53.89;99714.84;1692491;81;21140;-65
2022/01/18 08:57:41;;;;;;;0.37;0.20;;;;;;;-2.00;53.74;99719.81;1693772;83;21016;-64
2022/01/18 09:00:10;;;;;;;2.50;0.20;;;;;;;-2.37;54.26;99660.09;1691795;83;21086;-64
2022/01/18 09:02:37;;;;;;;0.80;0.20;;;;;;;-1.96;53.76;99719.91;1693086;83;20991;-66
2022/01/18 09:05:04;;;;;;;0.10;0.10;;;;;;;-1.98;54.74;99720.06;1685525;83;21103;-69
2022/01/18 09:07:33;;;;;;;2.67;0.37;;;;;;;-1.97;53.35;99721.70;1691046;83;21543;-65
2022/01/18 09:10:05;;;;;;;0.97;0.20;;;;;;;-1.90;53.19;99729.89;1688933;83;21533;-66
2022/01/18 09:12:27;;;;;;;0.40;0.30;;;;;;;-1.85;52.88;99700.28;1692734;83;21011;-69
2022/01/18 09:14:54;;;;;;;0.93;0.40;;;;;;;-1.83;52.60;99710.16;1691743;83;20976;-66
2022/01/18 09:17:20;;;;;;;3.30;1.05;;;;;;;-1.81;52.19;99747.44;1692435;83;21455;-68
2022/01/18 09:19:47;;;;;;;0.68;0.40;;;;;;;-1.78;52.18;99749.79;1691474;83;21007;-69
2022/01/18 09:22:13;;;;;;;;;;;;;;;-1.72;52.43;99739.80;1697188;83;21000;-65
2022/01/18 09:24:39;;;;;;;0.83;0.17;;;;;;;-1.62;52.24;99745.48;1707184;82;20144;-71
2022/01/18 09:27:05;;;;;;;0.50;0.20;;;;;;;-1.64;52.58;99755.68;1695504;82;21069;-67
2022/01/18 09:29:33;;;;;;;0.70;0.65;;;;;;;-1.66;50.88;99772.78;1705745;82;21070;-67
2022/01/18 09:31:59;;;;;;;0.40;0.30;;;;;;;-1.73;50.89;99759.03;1708241;82;21019;-63
2022/01/18 09:34:25;;;;;;;1.22;0.45;;;;;;;-1.76;51.23;99759.63;1684682;82;21087;-68
2022/01/18 09:36:51;;;;;;;1.50;0.23;;;;;;;-1.74;50.91;99765.23;1665889;84;21080;-66
2022/01/18 09:39:19;;;;;;;0.82;0.40;;;;;;;-1.71;50.15;99758.43;1653962;85;21067;-66
2022/01/18 09:41:50;;;;;;;0.30;0.20;;;;;;;-1.74;50.20;99762.62;1656315;85;21070;-68
2022/01/18 09:44:15;;;;;;;1.80;0.10;;;;;;;-1.73;49.71;99771.64;1654738;84;21068;-66
2022/01/18 09:46:42;;;;;;;0.50;0.28;;;;;;;-1.73;49.76;99767.73;1681720;84;21007;-64
2022/01/18 09:49:08;;;;;;;0.78;0.20;;;;;;;-1.67;50.56;99765.09;1687877;84;21042;-66
2022/01/18 09:51:35;;;;;;;0.30;0.20;;;;;;;-1.61;49.24;99768.52;1687570;84;21003;-65
2022/01/18 09:54:02;;;;;;;0.68;0.15;;;;;;;-1.65;48.85;99784.91;1684487;84;21045;-64
2022/01/18 09:56:29;;;;;;;1.43;0.33;;;;;;;-1.67;49.81;99782.08;1681775;84;21058;-66
2022/01/18 09:58:56;;;;;;;0.70;0.30;;;;;;;-1.69;49.34;99789.22;1676836;84;21109;-66
2022/01/18 10:01:22;;;;;;;0.82;0.50;;;;;;;-1.70;49.31;99788.36;1684037;84;21506;-65
2022/01/18 10:03:48;;;;;;;1.67;0.25;;;;;;;-1.72;49.86;99792.88;1676278;84;22152;-66
2022/01/18 10:06:18;;;;;;;0.35;0.25;;;;;;;-1.71;50.23;99791.09;1680450;84;21062;-65
2022/01/18 10:08:48;;;;;;;1.20;0.40;;;;;;;-1.66;49.90;99798.09;1677091;84;21007;-65
2022/01/18 10:11:18;;;;;;;0.83;0.20;;;;;;;-1.62;50.33;99808.20;1679715;84;21478;-63
2022/01/18 10:13:49;;;;;;;0.30;0.20;;;;;;;-1.58;50.17;99796.54;1686287;84;21553;-64
2022/01/18 10:16:23;;;;;;;0.83;0.20;;;;;;;-1.59;50.25;99818.39;1691522;84;21058;-66
2022/01/18 10:19:02;;;;;;;0.40;0.23;;;;;;;-1.60;49.68;99821.97;1685307;84;21069;-65
2022/01/18 10:21:40;;;;;;;0.60;0.30;;;;;;;-1.63;49.60;99813.05;1670185;84;21566;-63
2022/01/18 10:24:30;;;;;;;0.10;0.10;;;;;;;-1.65;49.17;99812.35;1679652;84;21028;-65
2022/01/18 10:26:57;;;;;;;;;;;;;;;-1.65;48.76;99831.13;1695107;84;21053;-65
2022/01/18 10:29:34;;;;;;;0.50;0.23;;;;;;;-1.92;48.95;99802.78;1679696;84;20145;-65
2022/01/18 10:32:11;;;;;;;3.60;0.20;;;;;;;-1.81;49.05;99849.79;1683382;84;21561;-64
2022/01/18 10:35:03;;;;;;;3.13;0.20;;;;;;;-1.78;49.50;99836.49;1684624;83;21046;-65
2022/01/18 10:37:17;;;;;;;0.40;0.10;;;;;;;-1.76;49.39;99815.81;1666840;84;21077;-62
2022/01/18 10:39:49;;;;;;;1.90;0.30;;;;;;;-1.73;48.56;99846.56;1680190;84;21098;-64
2022/01/18 10:42:24;;;;;;;0.67;0.40;;;;;;;-1.71;48.97;99843.35;1685404;84;21095;-65
2022/01/18 10:45:12;;;;;;;1.20;0.30;;;;;;;-1.67;48.74;99855.25;1682241;84;21585;-65
2022/01/18 10:48:10;;;;;;;0.70;0.10;;;;;;;-1.64;49.12;99855.84;1667549;84;21615;-64
2022/01/18 10:50:38;;;;;;;0.20;0.10;;;;;;;-1.64;49.00;99849.76;1670326;84;21066;-64
2022/01/18 10:53:21;;;;;;;0.50;0.40;;;;;;;-1.64;48.21;99865.44;1655145;85;20986;-64
2022/01/18 10:55:51;;;;;;;1.03;0.30;;;;;;;-1.66;47.93;99883.03;1691976;83;21525;-64
2022/01/18 10:58:22;;;;;;;1.70;0.30;;;;;;;-1.72;48.57;99871.28;1682547;83;22147;-64
2022/01/18 11:00:48;;;;;;;1.60;0.30;;;;;;;-1.71;48.35;99859.03;1676966;83;20991;-64
2022/01/18 11:03:15;;;;;;;2.00;0.30;;;;;;;-1.65;48.13;99857.27;1692558;83;21029;-66
2022/01/18 11:05:46;;;;;;;0.20;0.10;;;;;;;-1.59;48.44;99880.29;1693394;83;21209;-65
2022/01/18 11:08:15;;;;;;;1.50;0.30;;;;;;;-1.60;48.18;99866.41;1687694;83;21054;-63
2022/01/18 11:10:45;;;;;;;0.60;0.20;;;;;;;-1.70;48.19;99859.41;1688527;85;20998;-62
2022/01/18 11:13:13;;;;;;;3.97;1.03;;;;;;;-1.68;48.51;99887.55;1702058;82;21033;-63
2022/01/18 11:15:45;;;;;;;0.70;0.30;;;;;;;-1.77;49.10;99822.49;1699621;82;21581;-65
2022/01/18 11:18:18;;;;;;;0.30;0.30;;;;;;;-1.71;50.00;99880.79;1696063;82;21055;-64
2022/01/18 11:20:47;;;;;;;0.40;0.20;;;;;;;-1.66;49.94;99900.02;1696943;82;21564;-64
2022/01/18 11:23:15;;;;;;;0.40;0.30;;;;;;;-1.59;50.10;99903.81;1708287;82;21542;-66
2022/01/18 11:25:42;;;;;;;0.67;0.40;;;;;;;-1.52;50.57;99903.69;1706526;82;20999;-64
2022/01/18 11:28:11;;;;;;;2.15;0.57;;;;;;;-1.43;50.71;99906.03;1711263;82;21133;-63
2022/01/18 11:30:42;;;;;;;1.87;0.53;;;;;;;-1.39;50.40;99897.02;1699188;82;21062;-64
2022/01/18 11:33:13;;;;;;;0.63;0.43;;;;;;;-1.37;49.90;99911.63;1710716;82;21033;-63
2022/01/18 11:36:08;;;;;;;0.70;0.30;;;;;;;-1.32;50.14;99928.23;1705581;82;21045;-64
2022/01/18 11:38:50;;;;;;;1.30;0.40;;;;;;;-1.32;49.83;99923.48;1705122;82;20955;-64
2022/01/18 11:41:28;;;;;;;1.60;0.30;;;;;;;-1.33;50.18;99920.05;1704339;82;21633;-65
2022/01/18 11:43:59;;;;;;;2.50;0.30;;;;;;;-1.31;50.16;99933.83;1697224;82;21072;-66
2022/01/18 11:46:37;;;;;;;0.50;0.30;;;;;;;-1.27;50.02;99926.58;1708074;81;21098;-64
2022/01/18 11:49:12;;;;;;;0.70;0.30;;;;;;;-1.34;49.92;99934.06;1699961;82;21030;-63
2022/01/18 11:51:57;;;;;;;0.90;0.30;;;;;;;-1.36;50.31;99943.81;1692036;82;21130;-64
2022/01/18 11:55:04;;;;;;;1.77;0.50;;;;;;;-1.37;50.67;99948.70;1705058;82;21049;-64
2022/01/18 11:57:29;;;;;;;0.85;0.33;;;;;;;-1.33;51.15;99941.45;1689829;82;20991;-64
2022/01/18 11:59:59;;;;;;;0.50;0.20;;;;;;;-1.32;50.33;99970.56;1706076;82;21002;-68
2022/01/18 12:02:40;;;;;;;1.00;0.30;;;;;;;-1.36;50.89;99980.42;1685111;84;21027;-64
2022/01/18 12:05:19;;;;;;;1.13;0.20;;;;;;;-1.42;51.06;99963.44;1705096;82;21057;-64
2022/01/18 12:07:48;;;;;;;1.17;0.40;;;;;;;-1.48;50.55;99993.98;1692639;82;21605;-66
2022/01/18 12:10:33;;;;;;;2.57;0.30;;;;;;;-1.49;51.14;99999.33;1703099;82;21509;-64
2022/01/18 12:13:05;;;;;;;0.40;0.30;;;;;;;-1.47;51.53;100003.50;1694499;82;21081;-64
2022/01/18 12:15:43;;;;;;;0.80;0.40;;;;;;;-1.42;51.70;100007.88;1703380;82;21011;-62
2022/01/18 12:18:17;;;;;;;0.27;0.20;;;;;;;-1.42;52.06;100013.11;1708068;82;21249;-62
2022/01/18 12:20:48;;;;;;;3.80;0.20;;;;;;;-1.41;52.47;99997.79;1711982;82;21070;-63
2022/01/18 12:23:21;;;;;;;0.40;0.40;;;;;;;-1.41;52.54;100025.24;1707177;82;21010;-64
2022/01/18 12:34:40;;;;;;;0.40;0.30;;;;;;;-1.35;53.18;100047.95;1706413;81;21534;-64
2022/01/18 12:37:13;;;;;;;0.20;0.20;;;;;;;-1.37;52.93;100050.20;1710473;82;21154;-63
2022/01/18 12:45:11;;;;;;;0.70;0.40;;;;;;;-1.58;54.11;100038.79;1698793;82;21057;-63
2022/01/18 12:47:52;;;;;;;1.03;0.30;;;;;;;-1.57;54.29;100056.12;1710414;82;21058;-63
2022/01/18 12:50:35;;;;;;;0.73;0.30;;;;;;;-1.58;54.22;100042.71;1706510;82;21003;-65
2022/01/18 12:53:11;;;;;;;4.03;0.37;;;;;;;-1.63;59.10;100056.59;1702557;82;21050;-63
2022/01/18 12:55:55;;;;;;;0.50;0.20;;;;;;;-1.67;56.79;100057.78;1708501;82;21029;-64
2022/01/18 12:58:31;;;;;;;2.73;0.33;;;;;;;-1.71;54.99;100063.72;1700718;82;21242;-65
2022/01/18 13:01:11;;;;;;;1.00;0.20;;;;;;;-1.71;55.38;100025.82;1703588;82;21533;-64
2022/01/18 13:03:41;;;;;;;2.13;0.30;;;;;;;-1.74;54.75;100074.39;1708868;82;21509;-64
2022/01/18 13:06:11;;;;;;;1.20;0.33;;;;;;;-1.69;54.94;100067.04;1700044;82;21521;-63
2022/01/18 13:08:54;;;;;;;2.97;0.73;;;;;;;-1.65;54.55;100076.79;1691950;82;21075;-64
2022/01/18 13:11:25;;;;;;;4.17;0.50;;;;;;;-1.62;54.59;100081.77;1708191;81;21010;-63
2022/01/18 13:14:03;;;;;;;2.30;0.50;;;;;;;-1.54;54.27;100090.33;1710171;82;21026;-64
2022/01/18 13:27:16;;;;;;;0.53;0.37;;;;;;;-1.50;53.41;100108.78;1707420;82;21510;-64